首页
METAR-TAF:

METAR-TAF

机场 :

弗尔沙茨, 塞尔维亚

纬度: 45-09N, 经度: 021-19E, 海拔: 83米

当前天气观测

该预报发布于25分钟前的04:00 UTC
风速1节,风向多变
温度 -1°C
湿度 93%
气压 1029 hPa
能見度: 0300
冻雾

METAR: LYVR 260400Z AUTO VRB01KT 0300 R19/0350N R01/0700U FZFG VV007 M01/M02 Q1029

时间: 05:25 (04:25 UTC)

预报

该预报发布于5小时和25分钟前的23:00 UTC
预报有效从26日的 00点(UTC)到 26日的 24点(UTC)
风速4节,风向东转东北
能見度: 0600
成为
从 26日的 00点(UTC)到 26日的 02点(UTC)
能見度: 0300
层高于200英尺
冻雾
成为
从 26日的 07点(UTC)到 26日的 09点(UTC)
能見度: 3000
多云层高于300英尺
轻雾
成为
从 26日的 10点(UTC)到 26日的 12点(UTC)
能見度: 6000
成为
从 26日的 21点(UTC)到 26日的 23点(UTC)
能見度: 0600

TAF: LYVR 252300Z 2600/2624 07004KT 0600 FG NSC TX19/2613Z TNM02/2605Z BECMG 2600/2602 0300 FZFG VV002 BECMG 2607/2609 3000 BR BKN003 BECMG 2610/2612 6000 NSW NSC BECMG 2621/2623 0600 FG

超过4000个机场的气象观测和天气预报(METAR&TAF报告)。

可查询的气象台以黄色和红色小点在地图上表示。

将鼠标移到小点上方,可查看气象台名称。

然后点击查看天气观测和预报。

如需切换地图:点击带黑十字的绿色按钮放大地图;点击带横线的绿色按钮缩小地图;或者点击绿色箭头查看邻近地区的地图。


METAR-TAF: